Archival Weather

Tokyo Intl

Tokyo, Japan (RJTT)

Report from: Tuesday, November 21, 2023 6:00 AM JST
Current time: Sunday, February 25, 2024 1:32 AM JST

Current weather – Weather history – Daily summaries
Weather forecast

Temperature10.0°C (50.0°F)
Wind chill7.5°C (45.6°F)
Dew point2.0°C (35.6°F)
Winds 10 kts (5.1 m/s, 11.5 mph) North (10°)
Clouds Sky clear
Altimeter30.21 in.Hg (1023 mB)
Relative humidity58 %
Density altitude-821 ft. (-250 m)
Remarks Ceiling and visibility OK
No significant changes expected in the next two hours
Flight conditions Visual Meteorological Conditions
Raw dataRJTT 202100Z 01010KT CAVOK 10/02 Q1023 NOSIG RMK A3021
An error has occurred. This application may no longer respond until reloaded. Reload 🗙